createdAt,value
2022-09-05T00:02:12.183Z,2.85
2022-09-05T00:04:50.723Z,2.72
2022-09-05T00:07:36.039Z,2.65
2022-09-05T00:10:23.706Z,2.88
2022-09-05T00:13:07.214Z,3.10
2022-09-05T00:15:45.842Z,3.30
2022-09-05T00:24:14.928Z,3.15
2022-09-05T00:24:32.143Z,3.25
2022-09-05T00:25:00.893Z,3.15
2022-09-05T00:27:44.957Z,3.35
2022-09-05T00:31:50.570Z,2.75
2022-09-05T00:33:25.397Z,3.17
2022-09-05T00:36:04.472Z,2.85
2022-09-05T00:38:37.133Z,3.75
2022-09-05T00:41:10.481Z,3.53
2022-09-05T00:43:43.209Z,3.45
2022-09-05T00:46:17.629Z,2.83
2022-09-05T00:48:51.132Z,3.10
2022-09-05T00:51:34.901Z,3.10
2022-09-05T00:54:31.270Z,3.67
2022-09-05T00:57:43.522Z,2.85
2022-09-05T01:00:18.009Z,3.13
2022-09-05T01:03:09.457Z,3.72
2022-09-05T01:05:52.580Z,3.17
2022-09-05T01:09:07.320Z,3.40
2022-09-05T01:11:48.313Z,3.40
2022-09-05T01:14:46.201Z,3.30
2022-09-05T01:17:28.895Z,3.30
2022-09-05T01:20:19.407Z,3.42
2022-09-05T01:23:27.381Z,3.03
2022-09-05T01:26:09.731Z,3.60
2022-09-05T01:29:18.678Z,3.20
2022-09-05T01:31:43.861Z,3.35
2022-09-05T01:34:23.062Z,3.08
2022-09-05T01:37:33.618Z,3.60
2022-09-05T01:40:14.987Z,3.50
2022-09-05T01:42:59.668Z,3.40
2022-09-05T01:45:42.703Z,3.08
2022-09-05T01:48:24.920Z,3.15
2022-09-05T01:51:06.748Z,3.20
2022-09-05T01:53:59.935Z,3.17
2022-09-05T01:56:43.222Z,2.80
2022-09-05T01:59:29.938Z,3.20
2022-09-05T02:02:28.085Z,3.00
2022-09-05T02:05:48.636Z,2.97
2022-09-05T02:08:36.037Z,3.17
2022-09-05T02:11:09.382Z,3.33
2022-09-05T02:13:51.052Z,3.30
2022-09-05T02:16:25.879Z,3.85
2022-09-05T02:19:06.932Z,3.00
2022-09-05T02:21:56.289Z,3.50
2022-09-05T02:24:34.928Z,3.70
2022-09-05T02:27:53.548Z,3.70
2022-09-05T02:30:11.954Z,2.88
2022-09-05T02:32:45.762Z,3.22
2022-09-05T02:35:24.194Z,3.30
2022-09-05T02:38:38.043Z,3.67
2022-09-05T02:45:09.053Z,3.47
2022-09-05T02:45:19.933Z,4.07
2022-09-05T02:46:47.241Z,3.25
2022-09-05T02:52:21.287Z,3.25
2022-09-05T02:57:23.869Z,2.90
2022-09-05T02:57:34.201Z,3.63
2022-09-05T02:59:05.801Z,4.18
2022-09-05T03:01:40.350Z,4.10
2022-09-05T03:04:19.567Z,2.83
2022-09-05T03:07:03.217Z,3.58
2022-09-05T03:09:45.180Z,3.17
2022-09-05T03:13:00.017Z,4.00
2022-09-05T03:16:04.946Z,3.30
2022-09-05T03:19:21.792Z,3.90
2022-09-05T03:22:36.245Z,3.65
2022-09-05T03:25:54.412Z,3.55
2022-09-05T03:29:02.671Z,4.35
2022-09-05T03:31:49.202Z,4.78
2022-09-05T03:34:43.753Z,4.05
2022-09-05T03:37:52.192Z,3.60
2022-09-05T03:40:48.350Z,3.92
2022-09-05T03:43:59.515Z,3.97
2022-09-05T03:46:55.947Z,3.70
2022-09-05T03:52:03.175Z,4.13
2022-09-05T03:57:11.219Z,4.13
2022-09-05T03:57:13.960Z,3.80
2022-09-05T03:59:35.926Z,3.55
2022-09-05T04:07:53.191Z,3.63
2022-09-05T04:08:20.594Z,3.53
2022-09-05T04:08:23.789Z,4.20
2022-09-05T04:10:54.869Z,4.10
2022-09-05T04:13:29.868Z,3.97
2022-09-05T04:16:10.680Z,4.05
2022-09-05T04:18:42.704Z,3.90
2022-09-05T04:21:16.633Z,3.65
2022-09-05T04:23:58.648Z,3.97
2022-09-05T04:26:46.204Z,3.65
2022-09-05T04:29:22.703Z,4.00
2022-09-05T04:32:18.153Z,3.53
2022-09-05T04:35:05.400Z,3.33
2022-09-05T04:37:48.599Z,3.05
2022-09-05T04:40:38.834Z,3.60
2022-09-05T04:43:11.704Z,3.63
2022-09-05T04:45:45.242Z,3.47
2022-09-05T04:48:21.608Z,3.60
2022-09-05T04:51:13.014Z,3.72
2022-09-05T04:54:05.135Z,3.38
2022-09-05T04:56:39.109Z,3.55
2022-09-05T05:06:04.088Z,3.40
2022-09-05T05:06:08.721Z,3.58
2022-09-05T05:06:20.303Z,3.65
2022-09-05T05:08:04.129Z,3.00
2022-09-05T05:14:17.607Z,3.67
2022-09-05T05:18:15.464Z,3.92
2022-09-05T05:18:16.389Z,3.00
2022-09-05T05:19:22.176Z,3.80
2022-09-05T05:21:55.420Z,3.33
2022-09-05T05:24:29.040Z,3.50
2022-09-05T05:27:05.656Z,3.90
2022-09-05T05:29:44.268Z,3.67
2022-09-05T05:32:24.926Z,4.20
2022-09-05T05:35:13.843Z,3.80
2022-09-05T05:37:47.653Z,3.80
2022-09-05T05:40:22.936Z,4.07
2022-09-05T05:42:51.343Z,4.22
2022-09-05T05:45:25.848Z,3.70
2022-09-05T05:48:56.994Z,4.13
2022-09-05T05:52:01.614Z,4.18
2022-09-05T05:54:38.436Z,3.90
2022-09-05T05:57:35.181Z,4.15
2022-09-05T06:00:15.617Z,4.00
2022-09-05T06:03:26.198Z,4.03
2022-09-05T06:06:28.386Z,3.58
2022-09-05T06:14:53.008Z,3.85
2022-09-05T06:14:57.250Z,4.28
2022-09-05T06:16:36.330Z,3.80
2022-09-05T06:19:25.640Z,3.80
2022-09-05T06:22:21.352Z,3.75
2022-09-05T06:25:27.598Z,3.92
2022-09-05T06:28:21.742Z,3.80
2022-09-05T06:31:30.281Z,3.60
2022-09-05T06:34:12.921Z,3.78
2022-09-05T06:37:06.351Z,3.95
2022-09-05T06:39:54.703Z,4.00
2022-09-05T06:42:42.491Z,4.20
2022-09-05T06:45:32.689Z,3.63
2022-09-05T06:48:11.206Z,3.80
2022-09-05T06:51:11.052Z,3.75
2022-09-05T06:54:01.967Z,3.83
2022-09-05T06:56:56.624Z,3.90
2022-09-05T07:00:02.775Z,3.60
2022-09-05T07:02:59.116Z,4.47
2022-09-05T07:05:39.564Z,3.60
2022-09-05T07:08:36.099Z,3.53
2022-09-05T07:11:15.672Z,4.22
2022-09-05T07:13:59.524Z,4.20
2022-09-05T07:16:42.020Z,3.90
2022-09-05T07:19:26.979Z,3.65
2022-09-05T07:22:47.084Z,3.95
2022-09-05T07:25:18.729Z,4.05
2022-09-05T07:28:26.422Z,3.30
2022-09-05T07:30:48.964Z,3.00
2022-09-05T07:33:21.775Z,3.17
2022-09-05T07:35:52.124Z,4.22
2022-09-05T07:38:26.814Z,3.67
2022-09-05T07:41:22.404Z,3.30
2022-09-05T07:43:56.539Z,3.67
2022-09-05T07:46:28.110Z,3.30
2022-09-05T07:49:03.100Z,3.45
2022-09-05T07:56:19.207Z,3.50
2022-09-05T07:57:15.810Z,2.97
2022-09-05T07:57:31.832Z,3.57
2022-09-05T08:00:25.424Z,3.60
2022-09-05T08:02:59.803Z,2.73
2022-09-05T08:05:38.282Z,2.53
2022-09-05T08:08:11.641Z,3.37
2022-09-05T08:11:23.217Z,3.30
2022-09-05T08:14:38.432Z,2.97
2022-09-05T08:16:52.652Z,3.33
2022-09-05T08:19:44.570Z,2.80
2022-09-05T08:22:22.178Z,3.23
2022-09-05T08:24:59.773Z,2.90
2022-09-05T08:27:34.345Z,3.00
2022-09-05T08:30:25.657Z,3.00
2022-09-05T08:33:10.217Z,3.20
2022-09-05T08:35:45.321Z,2.70
2022-09-05T08:38:17.168Z,3.13
2022-09-05T08:40:54.221Z,4.00
2022-09-05T08:46:07.837Z,2.80
2022-09-05T08:46:41.511Z,3.20
2022-09-05T08:49:37.837Z,3.10
2022-09-05T08:52:14.621Z,4.03
2022-09-05T08:55:06.320Z,3.10
2022-09-05T08:58:06.119Z,3.40
2022-09-05T09:00:45.250Z,2.70
2022-09-05T09:03:30.969Z,2.60
2022-09-05T09:06:34.119Z,3.30
2022-09-05T09:09:19.560Z,2.70
2022-09-05T09:11:56.390Z,3.37
2022-09-05T09:14:37.784Z,3.00
2022-09-05T09:17:27.383Z,3.90
2022-09-05T09:20:23.326Z,3.33
2022-09-05T09:22:57.504Z,3.23
2022-09-05T09:25:33.993Z,3.30
2022-09-05T09:28:50.363Z,2.97
2022-09-05T09:31:38.123Z,2.77
2022-09-05T09:34:23.050Z,3.33
2022-09-05T09:37:51.868Z,3.03
2022-09-05T09:41:00.469Z,3.10
2022-09-05T09:43:38.441Z,3.40
2022-09-05T09:46:20.987Z,3.27
2022-09-05T09:49:23.340Z,3.70
2022-09-05T09:52:21.155Z,2.80
2022-09-05T09:55:25.353Z,3.17
2022-09-05T09:58:07.510Z,2.60
2022-09-05T10:00:51.322Z,3.10
2022-09-05T10:08:12.259Z,3.40
2022-09-05T10:10:49.589Z,3.43
2022-09-05T10:10:51.625Z,3.50
2022-09-05T10:13:27.211Z,2.67
2022-09-05T10:16:41.826Z,2.83
2022-09-05T10:23:16.435Z,2.50
2022-09-05T12:12:03.227Z,3.20
2022-09-05T12:14:42.428Z,3.30
2022-09-05T12:17:35.561Z,3.50
2022-09-05T12:20:16.977Z,3.20
2022-09-05T12:22:58.184Z,3.60
2022-09-05T12:27:41.392Z,3.00
2022-09-05T12:29:32.746Z,2.50
2022-09-05T12:33:34.020Z,3.43
2022-09-05T12:40:56.744Z,3.00
2022-09-05T12:41:33.510Z,2.83
2022-09-05T12:42:10.546Z,2.90
2022-09-05T12:44:19.303Z,3.30
2022-09-05T12:45:58.685Z,3.53
2022-09-05T12:48:39.178Z,3.07
2022-09-05T12:51:11.203Z,3.50
2022-09-05T12:54:02.950Z,3.47
2022-09-05T13:01:19.081Z,2.60
2022-09-05T13:02:56.142Z,3.40
2022-09-05T13:03:04.681Z,3.50
2022-09-05T13:05:16.240Z,2.80
2022-09-05T13:07:57.051Z,3.03
2022-09-05T13:13:18.603Z,3.10
2022-09-05T13:15:07.604Z,3.20
2022-09-05T13:16:23.799Z,3.20
2022-09-05T13:19:02.245Z,2.90
2022-09-05T13:21:32.433Z,2.80
2022-09-05T13:24:10.131Z,3.27
2022-09-05T13:26:42.055Z,2.97
2022-09-05T13:29:16.091Z,3.37
2022-09-05T13:37:59.371Z,2.90
2022-09-05T13:38:17.894Z,2.80
2022-09-05T13:38:35.883Z,3.10
2022-09-05T13:40:58.422Z,3.47
2022-09-05T13:43:30.058Z,3.17
2022-09-05T13:46:12.169Z,3.23
2022-09-05T13:51:45.957Z,3.10
2022-09-05T13:54:36.420Z,3.10
2022-09-05T13:57:32.001Z,2.93
2022-09-05T14:00:39.396Z,3.00
2022-09-05T14:03:48.747Z,3.20
2022-09-05T14:06:48.890Z,3.50
2022-09-05T14:09:37.578Z,3.13
2022-09-05T14:12:15.431Z,3.07
2022-09-05T14:18:20.169Z,2.80
2022-09-05T14:21:19.677Z,3.20
2022-09-05T14:23:56.046Z,3.30
2022-09-05T14:26:37.249Z,3.30
2022-09-05T14:29:16.611Z,3.20
2022-09-05T14:37:38.788Z,3.17
2022-09-05T14:37:41.492Z,2.93
2022-09-05T14:38:07.854Z,2.93
2022-09-05T14:41:15.206Z,2.80
2022-09-05T14:44:13.015Z,2.97
2022-09-05T14:47:10.810Z,3.13
2022-09-05T14:50:17.989Z,2.93
2022-09-05T14:56:35.339Z,3.43
2022-09-05T15:02:53.201Z,3.27
2022-09-05T15:02:54.896Z,2.90
2022-09-05T15:04:44.734Z,2.93
2022-09-05T15:07:21.029Z,3.63
2022-09-05T15:12:15.231Z,3.03
2022-09-05T15:13:02.525Z,3.20
2022-09-05T15:15:35.871Z,3.47
2022-09-05T15:18:10.544Z,3.70
2022-09-05T15:20:41.596Z,3.50
2022-09-05T15:23:17.057Z,4.00
2022-09-05T15:25:48.707Z,3.70
2022-09-05T15:28:22.899Z,2.93
2022-09-05T15:30:58.949Z,3.63
2022-09-05T15:33:30.601Z,3.10
2022-09-05T15:36:00.212Z,3.40
2022-09-05T15:38:38.729Z,3.30
2022-09-05T15:41:23.040Z,3.50
2022-09-05T15:43:58.490Z,3.57
2022-09-05T15:46:35.635Z,3.87
2022-09-05T15:49:09.981Z,3.77
2022-09-05T15:51:45.011Z,3.40
2022-09-05T15:54:37.407Z,3.10
2022-09-05T15:57:17.966Z,2.80
2022-09-05T15:59:49.733Z,3.10
2022-09-05T16:02:23.922Z,3.50
2022-09-05T16:10:27.108Z,3.77
2022-09-05T16:10:46.664Z,3.37
2022-09-05T16:11:31.633Z,3.20
2022-09-05T16:13:53.427Z,3.80
2022-09-05T16:23:11.475Z,3.83
2022-09-05T16:23:25.118Z,3.50
2022-09-05T16:23:29.141Z,3.30
2022-09-05T16:25:16.492Z,3.50
2022-09-05T16:27:59.364Z,3.60
2022-09-05T16:30:30.710Z,3.50
2022-09-05T16:33:05.444Z,2.87
2022-09-05T16:35:37.357Z,3.60
2022-09-05T16:38:21.481Z,3.30
2022-09-05T16:41:06.845Z,3.30
2022-09-05T16:43:43.510Z,3.63
2022-09-05T16:46:22.377Z,3.53
2022-09-05T16:48:56.426Z,4.40
2022-09-05T16:51:35.499Z,3.47
2022-09-05T16:54:13.025Z,3.33
2022-09-05T16:56:44.603Z,3.20
2022-09-05T16:59:19.295Z,3.23
2022-09-05T17:02:09.799Z,3.47
2022-09-05T17:05:04.303Z,3.00
2022-09-05T17:08:02.252Z,3.10
2022-09-05T17:10:35.916Z,3.77
2022-09-05T17:13:05.925Z,2.87
2022-09-05T17:15:36.685Z,3.13
2022-09-05T17:18:19.251Z,3.30
2022-09-05T17:20:52.032Z,3.53
2022-09-05T17:29:20.172Z,3.43
2022-09-05T17:29:23.471Z,3.43
2022-09-05T17:32:49.489Z,3.57
2022-09-05T17:35:32.069Z,4.30
2022-09-05T17:38:30.674Z,3.10
2022-09-05T17:41:34.328Z,3.80
2022-09-05T17:44:15.896Z,4.17
2022-09-05T17:46:52.437Z,3.23
2022-09-05T17:49:43.315Z,3.80
2022-09-05T17:52:23.721Z,3.30
2022-09-05T17:54:54.848Z,3.37
2022-09-05T17:57:35.840Z,3.20
2022-09-05T18:00:49.599Z,3.17
2022-09-05T18:04:16.945Z,3.90
2022-09-05T18:06:52.861Z,3.80
2022-09-05T18:10:12.751Z,3.77
2022-09-05T18:13:12.985Z,3.90
2022-09-05T18:16:11.137Z,3.27
2022-09-05T18:19:03.719Z,3.53
2022-09-05T18:21:49.523Z,4.30
2022-09-05T18:24:32.754Z,5.20
2022-09-05T18:27:37.929Z,4.10
2022-09-05T18:30:06.055Z,3.90
2022-09-05T18:32:53.404Z,4.53
2022-09-05T18:35:36.786Z,4.50
2022-09-05T18:38:18.190Z,3.87
2022-09-05T18:41:00.017Z,3.50
2022-09-05T18:43:34.188Z,3.57
2022-09-05T18:46:08.363Z,3.80
2022-09-05T18:49:44.933Z,3.60
2022-09-05T18:51:49.125Z,3.73
2022-09-05T18:54:22.311Z,4.47
2022-09-05T18:57:26.832Z,3.90
2022-09-05T18:59:53.849Z,4.50
2022-09-05T19:02:51.487Z,4.30
2022-09-05T19:05:28.451Z,3.47
2022-09-05T19:08:03.787Z,4.20
2022-09-05T19:10:36.897Z,3.80
2022-09-05T19:13:13.495Z,4.20
2022-09-05T19:15:53.167Z,4.30
2022-09-05T19:18:35.295Z,3.90
2022-09-05T19:21:19.213Z,3.87
2022-09-05T19:23:52.655Z,4.40
2022-09-05T19:26:24.544Z,3.87
2022-09-05T19:36:45.943Z,4.23
2022-09-05T19:37:06.266Z,3.80
2022-09-05T19:37:22.506Z,4.17
2022-09-05T19:37:38.638Z,4.00
2022-09-05T19:45:00.633Z,4.00
2022-09-05T19:47:38.730Z,3.73
2022-09-05T19:47:47.077Z,3.90
2022-09-05T19:48:39.734Z,3.80
2022-09-05T19:51:17.046Z,3.77
2022-09-05T19:54:03.752Z,4.70
2022-09-05T19:56:37.420Z,3.93
2022-09-05T19:59:18.074Z,4.07
2022-09-05T20:01:49.097Z,3.87
2022-09-05T20:04:19.052Z,3.23
2022-09-05T20:06:49.489Z,3.60
2022-09-05T20:09:20.866Z,3.63
2022-09-05T20:11:51.233Z,2.97
2022-09-05T20:14:24.614Z,4.17
2022-09-05T20:16:57.462Z,3.47
2022-09-05T20:19:32.168Z,4.20
2022-09-05T20:22:24.258Z,3.20
2022-09-05T20:24:52.899Z,3.63
2022-09-05T20:27:27.274Z,3.97
2022-09-05T20:30:01.209Z,3.80
2022-09-05T20:32:39.732Z,4.17
2022-09-05T20:40:06.786Z,4.13
2022-09-05T20:43:14.804Z,4.40
2022-09-05T20:43:15.108Z,4.43
2022-09-05T20:44:04.468Z,4.40
2022-09-05T20:54:08.100Z,4.23
2022-09-05T20:54:08.583Z,4.70
2022-09-05T20:54:28.945Z,4.23
2022-09-05T20:55:40.295Z,4.17
2022-09-05T20:58:12.819Z,4.63
2022-09-05T21:01:20.517Z,4.37
2022-09-05T21:03:39.969Z,5.13
2022-09-05T21:06:14.367Z,5.50
2022-09-05T21:08:43.215Z,4.70
2022-09-05T21:11:13.573Z,5.13
2022-09-05T21:13:52.596Z,5.50
2022-09-05T21:16:28.039Z,4.60
2022-09-05T21:18:58.453Z,4.60
2022-09-05T21:21:30.202Z,5.37
2022-09-05T21:24:16.396Z,4.90
2022-09-05T21:26:51.176Z,4.77
2022-09-05T21:29:32.229Z,4.60
2022-09-05T21:32:10.270Z,5.37
2022-09-05T21:34:46.309Z,5.57
2022-09-05T21:37:16.487Z,4.50
2022-09-05T21:39:58.524Z,4.80
2022-09-05T21:46:48.481Z,4.10
2022-09-05T21:47:42.548Z,4.70
2022-09-05T21:48:10.566Z,5.00
2022-09-05T21:50:45.413Z,4.67
2022-09-05T21:54:16.108Z,4.93
2022-09-05T21:59:22.792Z,4.33
2022-09-05T21:59:26.994Z,4.93
2022-09-05T22:01:58.330Z,5.10
2022-09-05T22:04:26.901Z,4.47
2022-09-05T22:06:58.756Z,4.80
2022-09-05T22:09:27.356Z,4.60
2022-09-05T22:11:56.551Z,5.37
2022-09-05T22:14:26.360Z,5.57
2022-09-05T22:16:57.468Z,4.60
2022-09-05T22:19:36.970Z,4.40
2022-09-05T22:22:16.591Z,4.90
2022-09-05T22:24:51.653Z,4.37
2022-09-05T22:27:22.764Z,5.10
2022-09-05T22:29:52.520Z,4.87
2022-09-05T22:32:25.903Z,5.22
2022-09-05T22:35:27.464Z,5.70
2022-09-05T22:37:55.293Z,5.40
2022-09-05T22:40:29.793Z,5.20
2022-09-05T22:42:58.985Z,5.25
2022-09-05T22:45:28.209Z,5.90
2022-09-05T22:47:57.002Z,4.90
2022-09-05T22:50:26.324Z,5.18
2022-09-05T22:52:55.952Z,5.47
2022-09-05T22:55:24.183Z,5.70
2022-09-05T22:57:52.544Z,6.07
2022-09-05T23:00:21.468Z,5.50
2022-09-05T23:02:52.700Z,4.43
2022-09-05T23:05:21.574Z,4.70
2022-09-05T23:07:49.738Z,5.30
2022-09-05T23:10:19.636Z,4.53
2022-09-05T23:12:47.866Z,4.78
2022-09-05T23:15:16.884Z,5.20
2022-09-05T23:17:45.175Z,4.90
2022-09-05T23:20:13.463Z,5.30
2022-09-05T23:22:43.149Z,4.83
2022-09-05T23:25:11.730Z,4.87
2022-09-05T23:27:41.485Z,5.25
2022-09-05T23:30:11.293Z,5.57
2022-09-05T23:32:45.491Z,5.23
2022-09-05T23:35:13.757Z,5.70
2022-09-05T23:37:43.440Z,5.90
2022-09-05T23:40:13.614Z,6.13
2022-09-05T23:42:43.337Z,6.07
2022-09-05T23:45:12.204Z,5.40
2022-09-05T23:47:40.534Z,5.45
2022-09-05T23:50:09.295Z,4.65
2022-09-05T23:52:40.724Z,5.93
2022-09-05T23:55:10.365Z,5.93
2022-09-05T23:57:38.597Z,5.85
